Time;durP1;ratioP1;P1;durP2;ratioP2;P2;SDS_P1;SDS_P2;PMS_P1;PMS_P2;Temp;Humidity;BMP_temperature;BMP_pressure;BME280_temperature;BME280_humidity;BME280_pressure;Samples;Min_cycle;Max_cycle;Signal;HPM_P1;HPM_P2
2021/04/05 00:00:30;;;;;;;9.58;5.62;;;;;;;-0.04;69.10;96394.22;1760807;81;21176;-85
2021/04/05 00:03:00;;;;;;;5.78;4.12;;;;;;;-0.05;68.76;96389.52;1723992;82;21226;-85
2021/04/05 00:05:31;;;;;;;11.93;5.92;;;;;;;-0.06;68.55;96376.20;1721877;82;21532;-85
2021/04/05 00:08:00;;;;;;;9.33;6.08;;;;;;;-0.06;68.83;96380.11;1758379;81;21148;-85
2021/04/05 00:13:26;;;;;;;12.37;6.55;;;;;;;-0.07;68.75;96371.21;1893898;74;22106;-84
2021/04/05 00:15:54;;;;;;;10.72;5.97;;;;;;;-0.08;68.62;96369.62;1884336;75;21236;-84
2021/04/05 00:18:26;;;;;;;8.95;4.85;;;;;;;-0.08;68.41;96359.20;1888760;75;21127;-84
2021/04/05 00:21:02;;;;;;;10.40;4.95;;;;;;;-0.10;68.15;96345.09;1894947;75;21154;-84
2021/04/05 00:23:29;;;;;;;8.53;4.15;;;;;;;-0.11;68.43;96334.89;1881240;75;21100;-85
2021/04/05 00:25:57;;;;;;;13.83;6.03;;;;;;;-0.13;68.32;96339.02;1887026;75;21102;-85
2021/04/05 00:28:24;;;;;;;4.60;3.25;;;;;;;-0.13;68.16;96339.02;1891396;75;21102;-85
2021/04/05 00:30:53;;;;;;;7.90;4.03;;;;;;;-0.12;68.05;96339.30;1906547;75;21248;-85
2021/04/05 00:33:22;;;;;;;6.97;4.28;;;;;;;-0.13;68.05;96336.41;1887021;75;21123;-85
2021/04/05 00:35:51;;;;;;;12.35;5.85;;;;;;;-0.10;67.90;96331.27;1871742;75;21459;-85
2021/04/05 00:38:19;;;;;;;9.25;5.30;;;;;;;-0.10;67.96;96324.25;1899666;75;21245;-85
2021/04/05 00:40:58;;;;;;;7.67;4.92;;;;;;;-0.09;67.83;96319.32;1906548;75;21225;-85
2021/04/05 00:43:26;;;;;;;9.80;5.55;;;;;;;-0.10;67.77;96311.22;1896764;75;21094;-85
2021/04/05 00:45:55;;;;;;;7.50;4.00;;;;;;;-0.13;67.92;96298.63;1901097;75;21613;-85
2021/04/05 00:48:25;;;;;;;10.23;5.62;;;;;;;-0.16;68.04;96306.06;1866261;75;21106;-85
2021/04/05 00:51:01;;;;;;;5.58;3.83;;;;;;;-0.14;67.85;96298.34;1889322;75;21138;-85
2021/04/05 00:53:35;;;;;;;11.15;5.08;;;;;;;-0.14;67.94;96297.52;1882938;75;21174;-84
2021/04/05 00:56:04;;;;;;;8.78;5.03;;;;;;;-0.16;67.85;96288.63;1888681;75;21225;-85
2021/04/05 00:58:33;;;;;;;6.33;3.65;;;;;;;-0.18;67.79;96294.56;1897000;75;21277;-84
2021/04/05 01:01:05;;;;;;;8.38;4.62;;;;;;;-0.16;67.58;96288.63;1848203;77;21106;-84
2021/04/05 01:03:36;;;;;;;4.90;3.83;;;;;;;-0.15;67.61;96294.13;1844613;78;21126;-85
2021/04/05 01:06:09;;;;;;;9.58;5.15;;;;;;;-0.19;67.69;96292.18;1884542;75;21102;-84
2021/04/05 01:08:36;;;;;;;8.00;4.85;;;;;;;-0.20;67.75;96282.27;1893796;75;21134;-85
2021/04/05 01:11:06;;;;;;;5.83;4.40;;;;;;;-0.18;67.66;96286.75;1884783;75;21134;-84
2021/04/05 01:13:33;;;;;;;6.53;3.98;;;;;;;-0.20;67.69;96277.06;1844737;78;21168;-84
2021/04/05 01:16:00;;;;;;;6.87;3.80;;;;;;;-0.21;67.68;96279.38;1871466;75;21091;-84
2021/04/05 01:18:28;;;;;;;8.05;4.35;;;;;;;-0.20;67.55;96267.94;1879100;75;21108;-85
2021/04/05 01:20:56;;;;;;;9.60;5.55;;;;;;;-0.26;67.93;96261.02;1868258;77;21067;-85
2021/04/05 01:23:25;;;;;;;12.63;5.33;;;;;;;-0.32;67.88;96266.56;1829004;78;21140;-84
2021/04/05 01:25:52;;;;;;;10.38;5.10;;;;;;;-0.35;67.96;96262.31;1892946;75;21567;-84
2021/04/05 01:28:20;;;;;;;5.22;3.60;;;;;;;-0.34;67.94;96262.59;1886983;75;21452;-84
2021/04/05 01:30:51;;;;;;;6.55;4.12;;;;;;;-0.34;67.92;96263.89;1828717;76;21083;-85
2021/04/05 01:33:26;;;;;;;10.03;5.72;;;;;;;-0.33;67.73;96255.06;1872672;75;21444;-84
2021/04/05 01:36:11;;;;;;;9.15;4.97;;;;;;;-0.34;67.83;96250.87;1882738;75;21121;-84
2021/04/05 01:38:46;;;;;;;8.48;4.60;;;;;;;-0.36;67.82;96245.89;1883859;75;21103;-84
2021/04/05 01:41:24;;;;;;;9.45;5.25;;;;;;;-0.36;67.81;96248.49;1856097;76;21108;-84
2021/04/05 01:43:51;;;;;;;8.10;3.92;;;;;;;-0.32;67.62;96254.05;1892230;75;21091;-84
2021/04/05 01:46:21;;;;;;;5.87;3.15;;;;;;;-0.31;67.79;96242.62;1852352;76;21254;-85
2021/04/05 01:48:49;;;;;;;7.53;4.42;;;;;;;-0.32;67.36;96234.01;1847060;76;21075;-84
2021/04/05 01:51:21;;;;;;;8.28;4.97;;;;;;;-0.28;67.50;96236.17;1865476;76;21137;-84
2021/04/05 01:53:50;;;;;;;7.37;4.45;;;;;;;-0.30;67.34;96229.88;1891108;75;21110;-84
2021/04/05 01:56:19;;;;;;;8.93;4.58;;;;;;;-0.31;67.36;96224.39;1892530;75;21095;-84
2021/04/05 01:58:51;;;;;;;8.05;4.42;;;;;;;-0.32;67.27;96217.59;1893316;75;21162;-84
2021/04/05 02:01:22;;;;;;;7.90;3.70;;;;;;;-0.33;67.32;96214.70;1884853;75;21468;-84
2021/04/05 02:03:52;;;;;;;9.45;5.03;;;;;;;-0.36;67.38;96207.33;1878130;75;22267;-83
2021/04/05 02:06:26;;;;;;;5.85;4.00;;;;;;;-0.36;67.43;96202.92;1885381;75;21095;-84
2021/04/05 02:08:54;;;;;;;10.53;4.47;;;;;;;-0.36;67.36;96196.41;1888730;75;21080;-84
2021/04/05 02:11:34;;;;;;;8.98;4.67;;;;;;;-0.37;67.32;96192.72;1875720;76;21147;-84
2021/04/05 02:14:01;;;;;;;6.10;4.03;;;;;;;-0.39;67.38;96198.66;1834688;77;21145;-84
2021/04/05 02:16:29;;;;;;;8.25;4.53;;;;;;;-0.43;67.59;96187.06;1867953;76;21450;-84
2021/04/05 02:18:59;;;;;;;7.78;4.83;;;;;;;-0.45;67.61;96189.10;1852501;76;21479;-84
2021/04/05 02:21:29;;;;;;;7.35;4.78;;;;;;;-0.45;67.52;96170.36;1862065;76;21306;-84
2021/04/05 02:24:04;;;;;;;4.40;3.22;;;;;;;-0.41;67.56;96164.23;1884349;75;21269;-85
2021/04/05 02:26:35;;;;;;;10.58;4.95;;;;;;;-0.41;67.51;96159.82;1880473;75;21494;-84
2021/04/05 02:29:07;;;;;;;9.08;4.37;;;;;;;-0.41;67.45;96155.12;1879350;76;21077;-84
2021/04/05 02:31:36;;;;;;;6.22;4.17;;;;;;;-0.41;67.43;96149.91;1870360;76;21172;-84
2021/04/05 02:34:06;;;;;;;7.47;4.25;;;;;;;-0.43;67.49;96146.20;1875832;75;21698;-85
2021/04/05 02:36:34;;;;;;;5.40;3.22;;;;;;;-0.43;67.38;96133.69;1866455;76;21107;-84
2021/04/05 02:39:09;;;;;;;5.00;3.30;;;;;;;-0.34;67.08;96138.89;1879390;76;21121;-84
2021/04/05 02:41:41;;;;;;;6.17;3.30;;;;;;;-0.31;66.93;96129.33;1845066;77;21130;-85
2021/04/05 02:44:10;;;;;;;5.55;3.20;;;;;;;-0.31;66.98;96124.91;1860962;76;21538;-85
2021/04/05 02:46:40;;;;;;;5.95;3.85;;;;;;;-0.32;66.94;96114.72;1856548;76;21139;-84
2021/04/05 02:49:15;;;;;;;7.35;4.50;;;;;;;-0.33;66.93;96120.95;1790736;78;21142;-84
2021/04/05 02:51:46;;;;;;;6.53;3.75;;;;;;;-0.35;66.91;96118.56;1874072;76;21180;-85
2021/04/05 02:54:16;;;;;;;5.95;3.90;;;;;;;-0.36;66.84;96096.66;1839301;77;21455;-85
2021/04/05 02:56:45;;;;;;;8.95;3.83;;;;;;;-0.34;66.75;96104.52;1878432;76;21222;-85
2021/04/05 02:59:18;;;;;;;9.53;3.92;;;;;;;-0.31;66.64;96103.28;1839177;77;21139;-85
2021/04/05 03:01:46;;;;;;;8.43;4.58;;;;;;;-0.29;66.42;96093.44;1872120;76;21228;-85
2021/04/05 03:04:13;;;;;;;5.55;3.30;;;;;;;-0.23;66.45;96107.39;1841773;77;21166;-84
2021/04/05 03:06:41;;;;;;;6.20;3.85;;;;;;;-0.21;66.29;96100.94;1877139;76;21229;-85
2021/04/05 03:09:08;;;;;;;8.43;5.03;;;;;;;-0.20;66.15;96082.99;1859314;76;21460;-85
2021/04/05 03:11:43;;;;;;;7.95;4.20;;;;;;;-0.20;66.28;96088.20;1834489;77;21149;-85
2021/04/05 03:14:11;;;;;;;7.53;4.28;;;;;;;-0.24;66.35;96083.67;1800021;78;21138;-85
2021/04/05 03:16:41;;;;;;;5.70;3.83;;;;;;;-0.27;66.32;96082.31;1825918;78;21867;-84
2021/04/05 03:19:11;;;;;;;6.47;3.87;;;;;;;-0.25;66.37;96078.17;1882466;75;21100;-84
2021/04/05 03:21:44;;;;;;;6.97;3.95;;;;;;;-0.24;66.36;96076.65;1893310;75;21083;-84
2021/04/05 03:24:13;;;;;;;6.15;3.30;;;;;;;-0.26;66.33;96066.97;1882483;75;21103;-84
2021/04/05 03:26:41;;;;;;;7.58;4.50;;;;;;;-0.28;66.37;96058.59;1873337;75;21470;-85
2021/04/05 03:29:12;;;;;;;4.55;2.98;;;;;;;-0.29;66.28;96055.67;1831267;77;21106;-85
2021/04/05 03:31:42;;;;;;;4.45;2.67;;;;;;;-0.32;66.33;96050.41;1838938;77;21087;-84
2021/04/05 03:34:23;;;;;;;6.85;3.67;;;;;;;-0.34;66.32;96044.63;1819735;78;21168;-85
2021/04/05 03:36:55;;;;;;;7.28;4.15;;;;;;;-0.35;66.39;96047.45;1837657;77;21548;-84
2021/04/05 03:39:24;;;;;;;7.17;3.95;;;;;;;-0.36;66.37;96041.97;1816903;78;21144;-85
2021/04/05 03:42:33;;;;;;;7.03;4.35;;;;;;;-0.31;66.29;96025.16;1821871;78;21639;-85
2021/04/05 03:45:24;;;;;;;7.73;4.73;;;;;;;-0.28;66.13;96022.13;1814566;78;22248;-85
2021/04/05 03:48:25;;;;;;;6.50;4.30;;;;;;;-0.28;66.22;96021.30;1812455;78;21169;-84
2021/04/05 03:51:13;;;;;;;6.42;3.35;;;;;;;-0.30;66.07;96013.20;1808314;78;21539;-85
2021/04/05 03:54:00;;;;;;;8.25;4.15;;;;;;;-0.23;66.00;96017.02;1822487;78;21134;-85
2021/04/05 03:56:47;;;;;;;6.55;4.53;;;;;;;-0.18;65.78;96021.55;1822771;78;21472;-85
2021/04/05 04:02:21;;;;;;;7.17;4.40;;;;;;;-0.14;65.84;95996.63;1764815;79;22920;-84
2021/04/05 04:05:03;;;;;;;6.03;3.45;;;;;;;-0.22;65.88;95997.77;1748469;81;21519;-84
2021/04/05 04:07:38;;;;;;;6.85;3.85;;;;;;;-0.23;65.88;95994.89;1740613;81;21482;-84
2021/04/05 04:10:07;;;;;;;5.50;3.72;;;;;;;-0.25;65.89;95999.53;1714199;83;21118;-85
2021/04/05 04:12:37;;;;;;;6.92;4.33;;;;;;;-0.26;65.74;95989.34;1705264;82;21202;-84
2021/04/05 04:15:07;;;;;;;5.95;3.52;;;;;;;-0.27;65.91;95980.73;1728849;81;21103;-84
2021/04/05 04:17:35;;;;;;;;;;;;;;;-0.31;65.96;95989.99;1711348;81;21146;-85
2021/04/05 04:20:08;;;;;;;5.75;3.83;;;;;;;-0.31;65.92;95979.58;1712340;81;20150;-84
2021/04/05 04:22:36;;;;;;;7.33;4.22;;;;;;;-0.26;65.95;95971.91;1724352;81;21139;-84
2021/04/05 04:25:07;;;;;;;5.97;3.58;;;;;;;0.19;65.43;95960.91;1736967;81;21133;-84
2021/04/05 04:27:36;;;;;;;8.35;3.77;;;;;;;0.69;64.27;95961.64;1726334;83;21155;-84
2021/04/05 04:30:07;;;;;;;6.28;3.87;;;;;;;1.02;63.21;95969.59;1709906;81;21135;-84
2021/04/05 04:32:35;;;;;;;6.65;3.90;;;;;;;1.34;61.97;95957.36;1727397;81;21181;-84
2021/04/05 04:35:03;;;;;;;6.70;4.03;;;;;;;1.69;61.15;95910.92;1743661;81;21176;-84
2021/04/05 04:37:30;;;;;;;7.05;4.40;;;;;;;2.01;60.79;95960.77;1745571;81;21121;-84
2021/04/05 04:39:58;;;;;;;7.83;3.67;;;;;;;2.44;59.83;95942.25;1759392;81;21172;-84
2021/04/05 04:42:25;;;;;;;6.45;3.77;;;;;;;2.70;58.20;95945.19;1716077;81;21145;-84
2021/04/05 04:44:53;;;;;;;6.97;4.75;;;;;;;2.96;57.43;95938.67;1712707;83;21147;-84
2021/04/05 04:47:21;;;;;;;7.92;3.58;;;;;;;3.37;57.32;95934.32;1736996;81;21175;-85
2021/04/05 04:49:48;;;;;;;7.00;4.33;;;;;;;3.75;55.25;95926.77;1742454;81;21500;-84
2021/04/05 04:52:15;;;;;;;9.28;4.70;;;;;;;4.05;55.62;95926.19;1747548;81;21151;-84
2021/04/05 04:54:42;;;;;;;7.33;4.65;;;;;;;4.35;53.84;95909.81;1724710;81;21153;-84
2021/04/05 04:57:10;;;;;;;9.30;4.85;;;;;;;4.43;52.86;95897.53;1735260;81;21488;-84
2021/04/05 04:59:37;;;;;;;7.30;4.35;;;;;;;4.61;53.23;95899.70;1734111;82;21129;-85
2021/04/05 05:02:05;;;;;;;6.80;4.62;;;;;;;4.88;51.87;95915.80;1752939;81;21175;-84
2021/04/05 05:04:35;;;;;;;6.75;4.20;;;;;;;5.13;50.93;95885.65;1735638;81;21597;-84
2021/04/05 05:07:03;;;;;;;9.20;5.30;;;;;;;5.45;50.54;95903.02;1721671;82;21518;-84
2021/04/05 05:09:31;;;;;;;6.58;4.00;;;;;;;5.62;50.27;95888.55;1738473;81;21143;-84
2021/04/05 05:11:58;;;;;;;7.12;4.30;;;;;;;6.02;48.48;95883.53;1734273;83;21146;-84
2021/04/05 05:14:26;;;;;;;7.47;4.10;;;;;;;6.19;48.14;95885.32;1721982;83;21142;-85
2021/04/05 05:16:54;;;;;;;7.62;4.37;;;;;;;6.19;47.79;95895.84;1754214;81;21312;-83
2021/04/05 05:19:22;;;;;;;8.13;4.80;;;;;;;6.39;46.94;95891.07;1749802;81;21138;-83
2021/04/05 05:21:53;;;;;;;6.80;4.05;;;;;;;6.34;46.64;95875.30;1731527;81;21642;-83
2021/04/05 05:24:29;;;;;;;6.78;4.05;;;;;;;6.70;46.99;95876.71;1726682;83;21273;-82
2021/04/05 05:26:58;;;;;;;8.38;4.55;;;;;;;6.99;45.84;95879.45;1716207;83;21142;-84
2021/04/05 05:29:28;;;;;;;7.62;4.22;;;;;;;7.10;45.81;95853.30;1725387;81;21123;-84
2021/04/05 05:31:56;;;;;;;8.40;4.50;;;;;;;7.10;44.72;95869.11;1731755;82;21111;-84
2021/04/05 05:34:25;;;;;;;8.55;4.85;;;;;;;7.34;44.09;95853.92;1729757;81;21172;-84
2021/04/05 05:36:52;;;;;;;6.85;4.67;;;;;;;7.50;43.56;95850.10;1723215;81;21169;-84
2021/04/05 05:39:20;;;;;;;5.17;3.80;;;;;;;7.86;43.83;95857.68;1728250;81;21677;-84
2021/04/05 05:42:28;;;;;;;7.95;4.62;;;;;;;8.17;42.78;95844.98;1733010;81;21165;-84
2021/04/05 05:45:09;;;;;;;8.70;4.62;;;;;;;8.55;42.39;95839.25;1719072;81;21142;-84
2021/04/05 05:48:10;;;;;;;6.33;4.40;;;;;;;9.19;41.79;95827.27;1727629;81;21110;-84
2021/04/05 05:50:54;;;;;;;8.10;4.53;;;;;;;9.02;40.79;95815.89;1723446;82;21094;-85
2021/04/05 05:54:02;;;;;;;6.37;3.72;;;;;;;9.20;41.27;95816.41;1724416;81;21138;-85
2021/04/05 05:56:37;;;;;;;6.75;4.17;;;;;;;9.47;39.90;95830.80;1717254;81;21122;-85
2021/04/05 05:59:31;;;;;;;7.40;4.08;;;;;;;9.86;40.03;95793.34;1730165;81;21138;-86
2021/04/05 06:02:27;;;;;;;7.15;3.90;;;;;;;9.82;39.55;95798.95;1736826;81;21093;-85
2021/04/05 06:05:20;;;;;;;6.83;4.03;;;;;;;9.70;39.79;95788.05;1729832;82;21219;-85
2021/04/05 06:07:56;;;;;;;6.65;4.40;;;;;;;10.08;38.60;95792.65;1732267;81;21258;-84
2021/04/05 06:11:11;;;;;;;5.83;3.92;;;;;;;9.75;38.48;95794.59;1733461;82;21245;-84
2021/04/05 06:14:16;;;;;;;7.12;3.83;;;;;;;9.71;39.06;95775.06;1722285;81;21165;-84
2021/04/05 06:17:08;;;;;;;9.70;4.40;;;;;;;10.06;38.10;95786.86;1729898;83;21104;-85
2021/04/05 06:19:49;;;;;;;5.60;3.55;;;;;;;9.58;38.74;95773.21;1741120;81;21524;-85
2021/04/05 06:22:57;;;;;;;7.15;3.83;;;;;;;9.72;39.62;95763.42;1731024;83;21122;-85
2021/04/05 06:25:35;;;;;;;5.37;3.92;;;;;;;10.16;38.76;95751.46;1731960;82;21265;-85
2021/04/05 06:28:29;;;;;;;5.58;3.40;;;;;;;10.34;37.82;95769.13;1733835;83;21494;-85
2021/04/05 06:31:35;;;;;;;6.50;3.47;;;;;;;10.55;37.81;95739.77;1733994;83;21110;-84
2021/04/05 06:34:38;;;;;;;6.17;3.85;;;;;;;10.35;37.56;95742.33;1730390;82;22278;-85
2021/04/05 06:37:23;;;;;;;5.10;3.05;;;;;;;10.78;37.34;95738.48;1734210;83;21256;-85
2021/04/05 06:39:55;;;;;;;4.92;3.50;;;;;;;10.54;37.22;95744.83;1733748;82;21185;-84
2021/04/05 06:43:00;;;;;;;5.37;3.47;;;;;;;10.54;37.61;95733.44;1726187;81;21275;-83
2021/04/05 06:45:46;;;;;;;5.00;2.87;;;;;;;10.59;37.40;95728.83;1722819;83;21094;-85
2021/04/05 06:48:50;;;;;;;4.65;3.47;;;;;;;11.04;36.29;95728.07;1733971;83;21466;-86
2021/04/05 06:51:58;;;;;;;4.28;3.12;;;;;;;11.20;36.87;95741.98;1733682;83;21130;-85
2021/04/05 06:54:31;;;;;;;7.67;4.00;;;;;;;11.77;36.15;95707.59;1717176;81;21107;-85
2021/04/05 06:57:15;;;;;;;6.55;3.17;;;;;;;12.28;36.51;95720.81;1730833;82;21639;-85
2021/04/05 07:00:03;;;;;;;4.12;2.98;;;;;;;12.90;35.30;95707.22;1731628;82;21498;-85
2021/04/05 07:03:14;;;;;;;5.12;3.12;;;;;;;13.42;34.19;95685.86;1710307;83;21301;-84
2021/04/05 07:05:47;;;;;;;;;;;;;;;13.94;34.14;95710.97;1728145;82;21494;-86
2021/04/05 07:08:32;;;;;;;4.75;3.10;;;;;;;13.74;31.88;95687.69;1727354;82;20194;-85
2021/04/05 07:11:36;;;;;;;3.80;2.85;;;;;;;13.85;34.21;95687.57;1719529;83;21178;-85
2021/04/05 07:14:28;;;;;;;3.15;2.55;;;;;;;14.03;31.80;95670.93;1722209;83;21158;-85
2021/04/05 07:17:22;;;;;;;4.08;2.67;;;;;;;13.61;32.30;95638.87;1707552;83;21198;-85
2021/04/05 07:20:22;;;;;;;4.03;2.90;;;;;;;14.06;32.20;95685.72;1727245;82;21291;-83
2021/04/05 07:23:07;;;;;;;3.25;2.47;;;;;;;14.15;32.09;95677.68;1726525;83;21269;-85
2021/04/05 07:26:02;;;;;;;3.77;2.40;;;;;;;14.38;31.69;95677.61;1724344;83;21250;-85
2021/04/05 07:29:04;;;;;;;4.08;2.65;;;;;;;14.75;31.04;95666.58;1726011;81;21083;-86
2021/04/05 07:31:56;;;;;;;9.13;2.45;;;;;;;14.58;30.83;95661.95;1726087;83;21211;-85
2021/04/05 07:34:49;;;;;;;3.92;2.90;;;;;;;14.85;30.22;95668.08;1725479;81;21237;-84
2021/04/05 07:37:43;;;;;;;4.28;2.50;;;;;;;15.08;30.60;95642.58;1723351;83;21134;-85
2021/04/05 07:40:51;;;;;;;4.10;2.40;;;;;;;15.76;30.11;95622.62;1722149;83;21625;-84
2021/04/05 07:43:39;;;;;;;3.98;2.83;;;;;;;15.41;29.79;95643.08;1727243;82;21106;-84
2021/04/05 07:46:35;;;;;;;4.67;2.77;;;;;;;15.55;30.71;95636.08;1713922;83;21119;-85
2021/04/05 07:49:23;;;;;;;3.37;2.47;;;;;;;15.70;29.78;95638.11;1703643;83;21118;-84
2021/04/05 07:52:16;;;;;;;4.85;2.85;;;;;;;15.57;29.42;95585.77;1727378;82;21478;-84
2021/04/05 07:54:44;;;;;;;2.75;2.08;;;;;;;15.90;29.98;95605.13;1726897;81;21199;-83
2021/04/05 07:57:40;;;;;;;3.95;2.52;;;;;;;15.97;27.88;95508.34;1728592;82;21510;-83
2021/04/05 08:00:32;;;;;;;4.10;2.27;;;;;;;15.31;29.22;95603.44;1731623;81;21094;-83
2021/04/05 08:03:30;;;;;;;4.03;2.58;;;;;;;15.75;28.26;95584.44;1745176;81;21121;-83
2021/04/05 08:06:07;;;;;;;4.22;2.80;;;;;;;15.98;29.78;95609.58;1727948;82;21071;-85
2021/04/05 08:08:58;;;;;;;3.33;2.60;;;;;;;16.68;28.89;95586.55;1728475;81;21139;-83
2021/04/05 08:11:47;;;;;;;4.60;2.55;;;;;;;16.22;28.70;95571.33;1741010;81;21487;-83
2021/04/05 08:14:40;;;;;;;5.92;2.72;;;;;;;15.99;27.57;95564.36;1724938;81;21160;-83
2021/04/05 08:17:25;;;;;;;4.12;2.52;;;;;;;14.99;29.37;95609.08;1733587;81;21147;-82
2021/04/05 08:20:03;;;;;;;5.65;3.58;;;;;;;14.88;29.04;95581.23;1732661;81;21129;-86
2021/04/05 08:23:07;;;;;;;4.05;2.05;;;;;;;14.67;30.38;95587.98;1735240;83;21505;-85
2021/04/05 08:25:44;;;;;;;5.40;2.87;;;;;;;14.69;30.24;95570.53;1661214;84;21166;-82
2021/04/05 08:28:49;;;;;;;4.12;2.37;;;;;;;15.51;29.74;95584.44;1668577;85;21195;-83
2021/04/05 08:31:36;;;;;;;5.83;2.98;;;;;;;15.65;29.76;95542.16;1682210;84;21188;-84
2021/04/05 08:34:16;;;;;;;5.12;2.80;;;;;;;15.84;29.59;95557.04;1676600;85;21092;-85
2021/04/05 08:36:55;;;;;;;3.15;2.05;;;;;;;16.10;28.56;95554.53;1679878;85;21174;-87
2021/04/05 08:39:43;;;;;;;3.75;2.12;;;;;;;16.32;28.04;95541.96;1676804;85;21142;-85
2021/04/05 08:42:21;;;;;;;5.03;3.08;;;;;;;15.27;28.56;95479.17;1669823;85;21147;-84
2021/04/05 08:45:00;;;;;;;3.55;2.55;;;;;;;14.11;31.34;95527.52;1679881;85;21096;-85
2021/04/05 08:47:31;;;;;;;4.22;2.87;;;;;;;14.20;31.18;95550.31;1679858;85;21127;-83
2021/04/05 08:50:06;;;;;;;3.30;2.22;;;;;;;15.13;31.40;95514.78;1676955;85;21460;-86
2021/04/05 08:52:42;;;;;;;4.28;2.33;;;;;;;15.57;30.60;95516.30;1675574;85;21555;-86
2021/04/05 08:55:15;;;;;;;5.03;2.85;;;;;;;15.85;29.88;95513.16;1690043;84;21120;-85
2021/04/05 08:57:57;;;;;;;3.35;2.25;;;;;;;15.34;30.69;95488.75;1691196;85;21512;-86
2021/04/05 09:00:27;;;;;;;3.72;2.90;;;;;;;14.19;31.08;95479.45;1669991;85;21151;-85
2021/04/05 09:03:01;;;;;;;3.92;2.33;;;;;;;14.09;32.37;95461.78;1678303;84;21187;-85
2021/04/05 09:05:33;;;;;;;4.22;2.80;;;;;;;13.65;33.71;95454.69;1670611;85;21124;-86
2021/04/05 09:08:13;;;;;;;5.05;3.22;;;;;;;13.38;33.21;95489.28;1668504;85;21292;-86
2021/04/05 09:11:06;;;;;;;5.72;3.00;;;;;;;13.34;33.09;95478.48;1671288;86;21172;-87
2021/04/05 09:13:51;;;;;;;3.58;2.20;;;;;;;13.03;33.82;95482.77;1669435;86;21144;-88
2021/04/05 09:16:57;;;;;;;4.08;2.70;;;;;;;12.26;35.11;95471.88;1668831;86;21278;-87
2021/04/05 09:19:57;;;;;;;4.58;2.80;;;;;;;11.81;36.60;95448.33;1673169;86;21689;-85
2021/04/05 09:26:37;;;;;;;4.75;2.80;;;;;;;11.15;37.15;95449.55;1810276;78;22498;-86
2021/04/05 09:29:45;;;;;;;5.60;2.65;;;;;;;10.90;37.63;95431.16;1761387;80;21184;-88
2021/04/05 09:32:27;;;;;;;3.52;2.30;;;;;;;10.74;38.55;95435.33;1753526;80;21198;-89
2021/04/05 09:35:19;;;;;;;9.15;2.90;;;;;;;10.51;39.71;95436.72;1737376;82;21189;-89
2021/04/05 09:38:30;;;;;;;4.53;3.00;;;;;;;10.20;41.03;95406.25;1744203;81;21084;-87
2021/04/05 09:41:29;;;;;;;4.47;2.08;;;;;;;10.39;40.58;95436.50;1735838;82;21148;-89
2021/04/05 09:44:21;;;;;;;5.97;3.30;;;;;;;10.48;40.47;95394.94;1745621;82;21117;-91
2021/04/05 09:47:03;;;;;;;3.35;2.35;;;;;;;10.61;40.01;95416.57;1739395;82;21508;-87
2021/04/05 09:50:12;;;;;;;6.78;2.72;;;;;;;10.68;39.20;95464.60;1723555;82;21128;-87
2021/04/05 09:53:10;;;;;;;5.05;2.87;;;;;;;10.63;39.21;95414.39;1751633;81;21173;-89
2021/04/05 09:55:42;;;;;;;5.87;3.35;;;;;;;10.73;40.01;95400.62;1746024;81;21147;-89
2021/04/05 09:58:27;;;;;;;5.75;3.10;;;;;;;10.91;39.48;95411.50;1749625;82;21480;-89
2021/04/05 10:01:10;;;;;;;6.33;2.60;;;;;;;10.83;40.30;95389.17;1718166;82;21126;-87
2021/04/05 10:03:44;;;;;;;3.98;2.83;;;;;;;10.82;39.88;95366.41;1739186;82;21152;-87
2021/04/05 10:06:18;;;;;;;6.25;3.05;;;;;;;11.16;41.00;95364.89;1745159;82;21115;-90
2021/04/05 10:08:48;;;;;;;7.45;3.77;;;;;;;11.45;39.34;95394.78;1746377;82;21471;-87
2021/04/05 10:11:17;;;;;;;7.95;3.40;;;;;;;11.40;38.99;95373.17;1749945;82;21165;-87
2021/04/05 10:14:02;;;;;;;3.70;2.27;;;;;;;11.30;38.54;95376.91;1751972;81;21116;-87
2021/04/05 10:16:31;;;;;;;5.28;2.95;;;;;;;11.18;38.70;95354.20;1742951;82;21119;-87
2021/04/05 10:19:09;;;;;;;5.47;2.50;;;;;;;11.03;38.97;95353.34;1751981;82;21177;-84
2021/04/05 10:21:43;;;;;;;5.15;2.87;;;;;;;11.05;39.83;95356.45;1737706;81;21091;-87
2021/04/05 10:24:12;;;;;;;3.80;2.20;;;;;;;11.14;39.82;95343.98;1747673;82;21198;-88
2021/04/05 10:26:42;;;;;;;4.70;2.27;;;;;;;11.28;39.47;95337.98;1751529;82;21145;-85
2021/04/05 10:29:14;;;;;;;5.40;2.85;;;;;;;11.36;38.92;95350.21;1746969;82;21115;-87
2021/04/05 10:31:44;;;;;;;8.70;3.00;;;;;;;11.38;39.32;95325.47;1753471;81;21096;-86
2021/04/05 10:34:14;;;;;;;6.12;2.72;;;;;;;11.10;38.56;95312.53;1754870;81;21481;-86
2021/04/05 10:36:49;;;;;;;4.78;2.50;;;;;;;10.99;38.90;95335.17;1752881;82;21175;-88
2021/04/05 10:39:16;;;;;;;4.35;3.08;;;;;;;11.10;40.29;95313.86;1752916;82;21115;-84
2021/04/05 10:42:02;;;;;;;5.12;2.25;;;;;;;11.21;39.51;95319.63;1755026;81;21139;-84
2021/04/05 10:44:34;;;;;;;5.08;2.55;;;;;;;11.27;38.95;95324.48;1752941;81;21115;-86
2021/04/05 10:47:06;;;;;;;6.15;2.72;;;;;;;11.32;38.87;95267.03;1743819;82;21241;-82
2021/04/05 10:49:34;;;;;;;6.83;2.85;;;;;;;11.45;39.60;95356.30;1747654;82;21142;-82
2021/04/05 10:52:12;;;;;;;7.25;2.83;;;;;;;11.58;39.46;95304.38;1745505;81;21143;-82
2021/04/05 10:54:47;;;;;;;6.47;3.27;;;;;;;11.77;39.10;95319.93;1751420;81;21143;-83
2021/04/05 10:57:20;;;;;;;4.87;2.90;;;;;;;11.86;39.94;95294.72;1752156;82;21147;-82
2021/04/05 10:59:54;;;;;;;5.90;2.72;;;;;;;11.89;38.35;95290.87;1740320;82;21519;-81
2021/04/05 11:02:44;;;;;;;5.10;2.35;;;;;;;11.85;37.17;95272.70;1728048;82;21165;-81
2021/04/05 11:05:19;;;;;;;4.28;2.42;;;;;;;11.71;39.04;95288.57;1733322;81;21258;-84
2021/04/05 11:07:54;;;;;;;4.80;2.42;;;;;;;11.76;38.88;95254.66;1738931;81;21501;-82
2021/04/05 11:10:24;;;;;;;5.25;2.40;;;;;;;11.73;37.57;95267.79;1751224;82;21136;-82
2021/04/05 11:13:06;;;;;;;4.37;2.25;;;;;;;11.76;38.02;95267.14;1757364;81;21135;-83
2021/04/05 11:15:38;;;;;;;5.50;2.98;;;;;;;11.80;37.80;95231.70;1726974;82;21155;-82
2021/04/05 11:18:12;;;;;;;4.20;2.47;;;;;;;11.72;38.46;95276.30;1751781;82;21149;-81
2021/04/05 11:20:45;;;;;;;3.83;2.20;;;;;;;11.99;39.26;95251.78;1746929;82;21242;-82
2021/04/05 11:23:17;;;;;;;5.95;2.20;;;;;;;12.13;38.60;95257.10;1721089;82;21151;-82
2021/04/05 11:25:49;;;;;;;7.80;3.22;;;;;;;12.21;37.49;95299.33;1748503;82;21151;-82
2021/04/05 11:28:23;;;;;;;6.80;2.87;;;;;;;12.22;36.96;95255.71;1748082;82;21089;-82
2021/04/05 11:31:08;;;;;;;6.30;2.60;;;;;;;12.15;37.46;95270.06;1744657;81;21184;-83
2021/04/05 11:33:46;;;;;;;4.28;2.55;;;;;;;12.18;38.02;95252.92;1744774;82;21128;-81
2021/04/05 11:36:15;;;;;;;1.92;1.47;;;;;;;12.27;37.50;95258.20;1734944;82;21500;-81
2021/04/05 11:38:52;;;;;;;3.55;2.00;;;;;;;12.34;36.17;95217.27;1728907;82;21131;-81
2021/04/05 11:41:29;;;;;;;3.15;2.40;;;;;;;12.32;36.84;95243.39;1746287;82;21133;-81
2021/04/05 11:44:01;;;;;;;4.58;2.60;;;;;;;12.17;35.84;95235.98;1750924;82;21507;-80
2021/04/05 11:46:30;;;;;;;5.10;1.95;;;;;;;12.14;35.74;95226.78;1745703;81;21630;-81
2021/04/05 11:49:06;;;;;;;4.70;2.05;;;;;;;12.20;35.16;95182.19;1734120;82;21143;-81
2021/04/05 11:51:57;;;;;;;3.22;1.72;;;;;;;11.92;34.94;95202.36;1733133;81;21569;-80
2021/04/05 11:54:39;;;;;;;4.00;1.75;;;;;;;12.03;35.75;95232.77;1743667;81;21123;-80
2021/04/05 11:57:11;;;;;;;3.55;2.05;;;;;;;12.16;34.72;95205.98;1748945;82;21261;-81
2021/04/05 11:59:48;;;;;;;3.85;2.42;;;;;;;12.27;34.07;95199.74;1744476;82;21101;-80
2021/04/05 12:02:23;;;;;;;4.40;1.90;;;;;;;12.38;35.24;95200.12;1734296;82;21554;-81
2021/04/05 12:04:59;;;;;;;2.42;1.77;;;;;;;12.48;34.76;95211.15;1729717;82;21118;-83
2021/04/05 12:07:27;;;;;;;3.98;2.02;;;;;;;12.42;35.65;95211.68;1725436;82;21184;-81
2021/04/05 12:10:07;;;;;;;4.70;1.45;;;;;;;12.31;32.93;95204.63;1735200;82;21146;-83
2021/04/05 12:12:41;;;;;;;3.72;1.57;;;;;;;12.01;34.06;95183.96;1741400;82;21137;-82
2021/04/05 12:15:14;;;;;;;3.25;2.08;;;;;;;12.02;33.95;95185.52;1733851;82;21245;-83
2021/04/05 12:17:45;;;;;;;3.58;1.75;;;;;;;11.96;33.54;95159.45;1737294;82;21258;-82
2021/04/05 12:20:16;;;;;;;3.20;1.92;;;;;;;12.12;35.75;95170.54;1736921;81;21130;-83
2021/04/05 12:22:45;;;;;;;2.40;1.65;;;;;;;12.54;35.19;95158.59;1746653;81;21127;-84
2021/04/05 12:25:14;;;;;;;2.10;1.60;;;;;;;12.44;33.79;95139.04;1745145;81;21119;-83
2021/04/05 12:27:41;;;;;;;2.87;1.60;;;;;;;12.12;34.65;95154.60;1747177;82;21166;-83
2021/04/05 12:30:24;;;;;;;3.02;2.12;;;;;;;12.09;34.98;95129.20;1753681;81;21100;-83
2021/04/05 12:32:47;;;;;;;3.12;1.92;;;;;;;11.89;34.41;95146.14;1750955;81;21093;-83